イヌヴィック の空港の天気 - METARとTAF

イヌヴィック空港 ( CYEV / YEV ) - カナダ ノースウエスト準州イヌヴィック
飛行場実況気象(Metar)
観測時間05/27 20:00 MDT (05/28 02:00 UTC)
風向・風速東 4m/s
視程10km以上
天気現象
少しの雲 雲底高度 2440m
気温15℃
湿度23%
気圧1025.5hPa
METARCYEV 280200Z 10008KT 010V120 15SM FEW080 15/M06 A3027 RMK AC1 SLP255
過去の天気等 Google飛行場航空写真 Wunderground天気予報

過去48時間のMETAR

飛行場予報(TAF)
発表時間: 5/27 18:38 MDT (5/28 00:38 UTC)
予報対象時間: 27日19時 MDT ~ 28日7時 MDT
風向・風速東北東 4m/s
視程10km以上
少しの雲 雲底高度 2130m
TAF CYEV 280038Z 2801/2813 07008KT P6SM FEW070 RMK NXT FCST BY 280700Z